Time;durP1;ratioP1;P1;durP2;ratioP2;P2;SDS_P1;SDS_P2;PMS_P1;PMS_P2;Temp;Humidity;BMP_temperature;BMP_pressure;BME280_temperature;BME280_humidity;BME280_pressure;Samples;Min_cycle;Max_cycle;Signal;HPM_P1;HPM_P2
2022/06/10 00:00:19;;;;;;;;;;;21.00;65.10;;;;;;5044975;27;89111;-48
2022/06/10 00:02:45;;;;;;;;;;;21.00;65.10;;;;;;5045065;28;88319;-46
2022/06/10 00:05:12;;;;;;;;;;;21.00;65.20;;;;;;5045150;28;87148;-47
2022/06/10 00:07:37;;;;;;;;;;;21.00;65.10;;;;;;5044722;27;89410;-47
2022/06/10 00:10:04;;;;;;;;;;;21.00;65.20;;;;;;5043746;28;90356;-47
2022/06/10 00:12:29;;;;;;;;;;;20.90;65.10;;;;;;5044183;28;87236;-47
2022/06/10 00:14:55;;;;;;;;;;;20.90;65.20;;;;;;5047212;27;88708;-46
2022/06/10 00:17:20;;;;;;;;;;;20.90;65.20;;;;;;5044601;28;86889;-46
2022/06/10 00:19:46;;;;;;;;;;;20.90;65.20;;;;;;5045017;28;87291;-46
2022/06/10 00:22:11;;;;;;;;;;;20.90;65.30;;;;;;5044484;28;88158;-48
2022/06/10 00:24:37;;;;;;;;;;;20.90;65.30;;;;;;5044511;28;87037;-47
2022/06/10 00:27:02;;;;;;;;;;;20.90;65.40;;;;;;5045488;28;87439;-46
2022/06/10 00:29:28;;;;;;;;;;;20.90;65.40;;;;;;5044340;28;87800;-49
2022/06/10 00:31:53;;;;;;;;;;;20.80;65.30;;;;;;5043409;28;87105;-48
2022/06/10 00:34:19;;;;;;;;;;;20.80;65.40;;;;;;5044125;28;87975;-46
2022/06/10 00:36:45;;;;;;;;;;;20.80;65.40;;;;;;5046808;28;88480;-48
2022/06/10 00:39:10;;;;;;;;;;;20.80;65.30;;;;;;5044299;27;87758;-45
2022/06/10 00:41:40;;;;;;;;;;;20.80;65.30;;;;;;5044272;28;88146;-46
2022/06/10 00:44:25;;;;;;;;;;;20.80;65.30;;;;;;5044451;28;87068;-46
2022/06/10 00:46:51;;;;;;;;;;;20.80;65.30;;;;;;5044327;28;87470;-46
2022/06/10 00:49:16;;;;;;;;;;;20.80;65.50;;;;;;5044242;28;88164;-46
2022/06/10 00:51:55;;;;;;;;;;;20.80;65.50;;;;;;5044555;28;86639;-47
2022/06/10 00:54:34;;;;;;;;;;;20.80;65.50;;;;;;5044252;27;87022;-47
2022/06/10 00:57:00;;;;;;;;;;;20.80;65.40;;;;;;5046656;28;89613;-46
2022/06/10 00:59:29;;;;;;;;;;;20.70;65.50;;;;;;5043531;27;88962;-46
2022/06/10 01:01:59;;;;;;;;;;;20.70;65.50;;;;;;5043694;28;87327;-46
2022/06/10 01:04:25;;;;;;;;;;;20.70;65.60;;;;;;5044011;28;87098;-46
2022/06/10 01:06:51;;;;;;;;;;;20.60;65.60;;;;;;5044238;28;86975;-45
2022/06/10 01:09:16;;;;;;;;;;;20.70;65.70;;;;;;5043943;28;88061;-45
2022/06/10 01:11:42;;;;;;;;;;;20.70;65.60;;;;;;5043510;28;87017;-47
2022/06/10 01:14:10;;;;;;;;;;;20.60;65.60;;;;;;5044294;28;87320;-46
2022/06/10 01:16:48;;;;;;;;;;;20.60;65.60;;;;;;5043880;28;87475;-46
2022/06/10 01:19:21;;;;;;;;;;;20.70;65.60;;;;;;5046866;28;87139;-46
2022/06/10 01:22:02;;;;;;;;;;;20.60;65.70;;;;;;5043917;28;88036;-46
2022/06/10 01:24:30;;;;;;;;;;;20.60;65.70;;;;;;5043387;28;88145;-49
2022/06/10 01:30:03;;;;;;;;;;;20.60;65.80;;;;;;5043658;28;87181;-46
2022/06/10 01:32:40;;;;;;;;;;;20.50;65.80;;;;;;5037689;28;87103;-47
2022/06/10 01:35:13;;;;;;;;;;;20.50;65.90;;;;;;5043846;27;87447;-46
2022/06/10 01:37:38;;;;;;;;;;;20.50;65.90;;;;;;5043305;28;87977;-48
2022/06/10 01:40:21;;;;;;;;;;;20.50;65.90;;;;;;5043137;28;87162;-48
2022/06/10 01:43:03;;;;;;;;;;;20.50;65.80;;;;;;5046278;28;88976;-46
2022/06/10 01:45:32;;;;;;;;;;;20.50;65.80;;;;;;5043605;28;87133;-47
2022/06/10 01:48:04;;;;;;;;;;;20.50;65.90;;;;;;5043282;27;87427;-46
2022/06/10 01:50:29;;;;;;;;;;;20.50;65.80;;;;;;5042102;28;89022;-48
2022/06/10 01:53:04;;;;;;;;;;;20.50;65.90;;;;;;5043449;28;87107;-49
2022/06/10 01:55:32;;;;;;;;;;;20.50;66.00;;;;;;5043401;27;87400;-46
2022/06/10 01:58:01;;;;;;;;;;;20.50;65.80;;;;;;5042963;28;88166;-46
2022/06/10 02:00:28;;;;;;;;;;;20.50;65.80;;;;;;5042908;28;87194;-49
2022/06/10 02:03:15;;;;;;;;;;;20.40;65.90;;;;;;5043297;27;88844;-46
2022/06/10 02:05:46;;;;;;;;;;;20.40;66.00;;;;;;5045588;28;89484;-46
2022/06/10 02:08:18;;;;;;;;;;;20.40;66.00;;;;;;5043681;27;87437;-48
2022/06/10 02:10:51;;;;;;;;;;;20.40;66.00;;;;;;5042316;28;88724;-48
2022/06/10 02:13:18;;;;;;;;;;;20.40;66.00;;;;;;5043370;28;86966;-46
2022/06/10 02:15:47;;;;;;;;;;;20.40;66.00;;;;;;5042508;28;87931;-50
2022/06/10 02:18:18;;;;;;;;;;;20.40;66.20;;;;;;5042585;28;88004;-47
2022/06/10 02:20:45;;;;;;;;;;;20.40;66.10;;;;;;5043108;28;86908;-46
2022/06/10 02:23:14;;;;;;;;;;;20.30;66.00;;;;;;5042916;28;87397;-46
2022/06/10 02:25:44;;;;;;;;;;;20.30;66.10;;;;;;5042306;28;87991;-46
2022/06/10 02:28:11;;;;;;;;;;;20.30;66.20;;;;;;5045655;28;87062;-48
2022/06/10 02:30:43;;;;;;;;;;;20.30;66.10;;;;;;5042452;28;88118;-46
2022/06/10 02:33:09;;;;;;;;;;;20.30;66.20;;;;;;5043249;28;86404;-46
2022/06/10 02:35:44;;;;;;;;;;;20.20;66.20;;;;;;5042842;27;87012;-48
2022/06/10 02:38:24;;;;;;;;;;;20.30;66.20;;;;;;5041933;28;88107;-49
2022/06/10 02:41:12;;;;;;;;;;;20.30;66.20;;;;;;5042201;28;88094;-47
2022/06/10 02:43:48;;;;;;;;;;;20.30;66.20;;;;;;5022500;27;87517;-48
2022/06/10 02:46:20;;;;;;;;;;;20.20;66.20;;;;;;5042087;28;88449;-46
2022/06/10 02:48:55;;;;;;;;;;;20.20;66.30;;;;;;5042661;28;87091;-50
2022/06/10 02:51:21;;;;;;;;;;;20.20;66.30;;;;;;5045251;28;87566;-47
2022/06/10 02:53:46;;;;;;;;;;;20.20;66.30;;;;;;5043142;28;87127;-46
2022/06/10 02:56:16;;;;;;;;;;;20.20;66.40;;;;;;5046077;27;88762;-46
2022/06/10 03:01:45;;;;;;;;;;;20.20;66.30;;;;;;5043599;28;86936;-49
2022/06/10 03:04:13;;;;;;;;;;;20.20;66.40;;;;;;5046245;27;87520;-45
2022/06/10 03:06:39;;;;;;;;;;;20.10;66.30;;;;;;5044916;28;90627;-46
2022/06/10 03:09:15;;;;;;;;;;;20.20;66.30;;;;;;5045796;28;87129;-46
2022/06/10 03:11:47;;;;;;;;;;;20.10;66.40;;;;;;5047507;28;87488;-46
2022/06/10 03:14:12;;;;;;;;;;;20.10;66.40;;;;;;5045834;28;86953;-46
2022/06/10 03:16:38;;;;;;;;;;;20.10;66.50;;;;;;5046032;28;87492;-48
2022/06/10 03:19:22;;;;;;;;;;;20.10;66.50;;;;;;5045679;28;88067;-50
2022/06/10 03:21:54;;;;;;;;;;;20.10;66.50;;;;;;5045520;28;87461;-47
2022/06/10 03:24:39;;;;;;;;;;;20.10;66.60;;;;;;5046175;28;87468;-46
2022/06/10 03:27:12;;;;;;;;;;;20.10;66.60;;;;;;5045237;28;88089;-46
2022/06/10 03:29:53;;;;;;;;;;;20.10;66.60;;;;;;5045724;28;87006;-46
2022/06/10 03:32:21;;;;;;;;;;;20.10;66.60;;;;;;5045218;28;88002;-47
2022/06/10 03:34:49;;;;;;;;;;;20.10;66.60;;;;;;5048205;28;87905;-46
2022/06/10 03:37:17;;;;;;;;;;;20.10;66.70;;;;;;5045534;27;87122;-44
2022/06/10 03:39:49;;;;;;;;;;;20.00;66.60;;;;;;5044705;28;89385;-48
2022/06/10 03:42:15;;;;;;;;;;;20.00;66.60;;;;;;5045647;28;86790;-46
2022/06/10 03:44:42;;;;;;;;;;;20.00;66.50;;;;;;5045337;27;87316;-46
2022/06/10 03:47:10;;;;;;;;;;;20.00;66.60;;;;;;5044432;28;89610;-46
2022/06/10 03:49:42;;;;;;;;;;;20.00;66.80;;;;;;5045702;28;86245;-46
2022/06/10 03:52:08;;;;;;;;;;;20.00;66.70;;;;;;5045303;27;86923;-47
2022/06/10 03:54:34;;;;;;;;;;;20.00;66.70;;;;;;5045015;28;87179;-46
2022/06/10 03:56:59;;;;;;;;;;;20.00;66.60;;;;;;5047563;28;88074;-46
2022/06/10 03:59:25;;;;;;;;;;;20.00;66.60;;;;;;5044932;28;88207;-46
2022/06/10 04:01:50;;;;;;;;;;;19.90;66.60;;;;;;5045053;28;87201;-46
2022/06/10 04:04:16;;;;;;;;;;;19.90;66.80;;;;;;5045284;28;87027;-46
2022/06/10 04:06:41;;;;;;;;;;;19.90;66.70;;;;;;5044735;28;87455;-47
2022/06/10 04:09:07;;;;;;;;;;;19.90;66.90;;;;;;5045011;28;87152;-47
2022/06/10 04:11:32;;;;;;;;;;;19.90;66.80;;;;;;5044755;28;87438;-46
2022/06/10 04:13:58;;;;;;;;;;;19.90;66.70;;;;;;5045527;28;87254;-47
2022/06/10 04:16:23;;;;;;;;;;;19.90;66.90;;;;;;5044632;28;87119;-46
2022/06/10 04:18:49;;;;;;;;;;;19.90;66.90;;;;;;5047326;27;89040;-47
2022/06/10 04:21:14;;;;;;;;;;;19.90;66.90;;;;;;5044035;28;88003;-46
2022/06/10 04:23:40;;;;;;;;;;;19.80;66.90;;;;;;5044848;28;88434;-49
2022/06/10 04:26:06;;;;;;;;;;;19.80;66.90;;;;;;5044406;28;87988;-47
2022/06/10 04:28:31;;;;;;;;;;;19.90;66.90;;;;;;5044797;28;87201;-45
2022/06/10 04:30:57;;;;;;;;;;;19.80;66.80;;;;;;5044743;28;87501;-47
2022/06/10 04:33:23;;;;;;;;;;;19.80;67.00;;;;;;5043893;28;89566;-46
2022/06/10 04:35:49;;;;;;;;;;;19.80;67.00;;;;;;5044433;28;87196;-47
2022/06/10 04:38:16;;;;;;;;;;;19.80;67.00;;;;;;5045211;27;87246;-45
2022/06/10 04:40:42;;;;;;;;;;;19.80;67.00;;;;;;5047052;28;87167;-47
2022/06/10 04:43:07;;;;;;;;;;;19.80;67.20;;;;;;5044540;27;87498;-46
2022/06/10 04:45:35;;;;;;;;;;;19.80;67.10;;;;;;5043581;28;89027;-46
2022/06/10 04:48:01;;;;;;;;;;;19.70;67.00;;;;;;5044412;28;87085;-46
2022/06/10 04:50:28;;;;;;;;;;;19.70;67.10;;;;;;5044051;27;88771;-46
2022/06/10 04:52:54;;;;;;;;;;;19.80;67.10;;;;;;5044191;28;88263;-46
2022/06/10 04:55:20;;;;;;;;;;;19.80;67.00;;;;;;5044016;28;86957;-46
2022/06/10 04:57:46;;;;;;;;;;;19.70;67.20;;;;;;5044286;28;87397;-46
2022/06/10 05:00:19;;;;;;;;;;;19.70;67.20;;;;;;5043861;28;89355;-47
2022/06/10 05:02:44;;;;;;;;;;;19.70;67.20;;;;;;5047489;28;86448;-46
2022/06/10 05:05:10;;;;;;;;;;;19.70;67.20;;;;;;5043981;28;87326;-49
2022/06/10 05:07:36;;;;;;;;;;;19.70;67.00;;;;;;5044157;28;87112;-46
2022/06/10 05:10:02;;;;;;;;;;;19.70;67.00;;;;;;5043710;27;88887;-46
2022/06/10 05:12:28;;;;;;;;;;;19.70;67.20;;;;;;5043569;28;88150;-48
2022/06/10 05:14:53;;;;;;;;;;;19.70;67.20;;;;;;5043823;28;87008;-47
2022/06/10 05:17:19;;;;;;;;;;;19.60;67.10;;;;;;5043507;27;87311;-47
2022/06/10 05:19:47;;;;;;;;;;;19.70;67.10;;;;;;5043769;28;88150;-46
2022/06/10 05:22:13;;;;;;;;;;;19.70;67.20;;;;;;5046961;28;87058;-46
2022/06/10 05:24:39;;;;;;;;;;;19.70;67.20;;;;;;5043487;28;87878;-46
2022/06/10 05:27:05;;;;;;;;;;;19.60;67.10;;;;;;5044354;28;86251;-48
2022/06/10 05:29:30;;;;;;;;;;;19.60;67.10;;;;;;5043713;27;88099;-46
2022/06/10 05:31:56;;;;;;;;;;;19.70;67.20;;;;;;5043637;28;87918;-47
2022/06/10 05:37:05;;;;;;;;;;;19.70;67.10;;;;;;5043753;28;87469;-47
2022/06/10 05:39:31;;;;;;;;;;;19.60;67.00;;;;;;5041795;28;88850;-48
2022/06/10 05:42:05;;;;;;;;;;;19.60;67.10;;;;;;5043612;28;87105;-46
2022/06/10 05:44:35;;;;;;;;;;;19.70;67.20;;;;;;5046384;27;87364;-46
2022/06/10 05:47:01;;;;;;;;;;;19.60;67.10;;;;;;5043600;28;87426;-46
2022/06/10 05:49:28;;;;;;;;;;;19.60;67.10;;;;;;5043495;27;87317;-47
2022/06/10 05:51:53;;;;;;;;;;;19.70;67.30;;;;;;5043708;28;87468;-47
2022/06/10 05:54:19;;;;;;;;;;;19.70;67.20;;;;;;5043693;28;86878;-47
2022/06/10 05:56:44;;;;;;;;;;;19.60;67.10;;;;;;5043336;28;87635;-47
2022/06/10 05:59:11;;;;;;;;;;;19.70;67.20;;;;;;5042276;28;88859;-47
2022/06/10 06:01:36;;;;;;;;;;;19.60;67.00;;;;;;5043386;28;87077;-46
2022/06/10 06:04:02;;;;;;;;;;;19.60;67.10;;;;;;5043462;28;87393;-47
2022/06/10 06:06:27;;;;;;;;;;;19.60;67.30;;;;;;5045917;28;87969;-48
2022/06/10 06:08:53;;;;;;;;;;;19.60;67.10;;;;;;5043345;28;86968;-46
2022/06/10 06:11:18;;;;;;;;;;;19.60;67.10;;;;;;5042339;28;87815;-46
2022/06/10 06:13:44;;;;;;;;;;;19.60;67.10;;;;;;5042747;28;87076;-47
2022/06/10 06:16:13;;;;;;;;;;;19.60;67.10;;;;;;5043597;27;87283;-45
2022/06/10 06:18:39;;;;;;;;;;;19.70;67.10;;;;;;5042484;28;88522;-46
2022/06/10 06:21:06;;;;;;;;;;;19.70;67.20;;;;;;5042829;28;87123;-47
2022/06/10 06:23:31;;;;;;;;;;;19.60;67.00;;;;;;5042367;28;88742;-46
2022/06/10 06:25:57;;;;;;;;;;;19.70;67.00;;;;;;5042442;28;87218;-45
2022/06/10 06:28:22;;;;;;;;;;;19.60;67.00;;;;;;5044671;27;87123;-47
2022/06/10 06:30:48;;;;;;;;;;;19.70;67.10;;;;;;5042373;28;88163;-45
2022/06/10 06:33:14;;;;;;;;;;;19.60;67.00;;;;;;5042967;28;87102;-46
2022/06/10 06:35:40;;;;;;;;;;;19.70;67.10;;;;;;5042566;27;88893;-47
2022/06/10 06:38:06;;;;;;;;;;;19.60;67.10;;;;;;5042259;28;88642;-46
2022/06/10 06:40:31;;;;;;;;;;;19.60;67.00;;;;;;5042697;28;86335;-46
2022/06/10 06:42:57;;;;;;;;;;;19.70;67.00;;;;;;5042504;28;86944;-45
2022/06/10 06:45:23;;;;;;;;;;;19.60;67.00;;;;;;5042148;28;89368;-46
2022/06/10 06:47:51;;;;;;;;;;;19.60;67.10;;;;;;5041902;28;88032;-46
2022/06/10 06:50:18;;;;;;;;;;;19.60;67.00;;;;;;5044967;27;88313;-46
2022/06/10 06:52:44;;;;;;;;;;;19.70;67.10;;;;;;5042390;27;86980;-46
2022/06/10 06:55:10;;;;;;;;;;;19.60;67.10;;;;;;5042664;28;87317;-46
2022/06/10 06:57:35;;;;;;;;;;;19.60;67.10;;;;;;5042116;28;87167;-47
2022/06/10 07:00:06;;;;;;;;;;;19.70;67.20;;;;;;5042296;28;86965;-46
2022/06/10 07:02:35;;;;;;;;;;;19.60;67.10;;;;;;5042637;27;87478;-46
2022/06/10 07:05:02;;;;;;;;;;;19.60;67.10;;;;;;5042250;28;87039;-46
2022/06/10 07:07:27;;;;;;;;;;;19.60;67.10;;;;;;5042122;28;87044;-46
2022/06/10 07:09:53;;;;;;;;;;;19.70;67.20;;;;;;5044777;27;87463;-47
2022/06/10 07:12:18;;;;;;;;;;;19.60;67.10;;;;;;5041263;28;88119;-46
2022/06/10 07:14:44;;;;;;;;;;;19.70;67.10;;;;;;5042260;28;88455;-47
2022/06/10 07:17:11;;;;;;;;;;;19.70;67.20;;;;;;5042361;28;88019;-48
2022/06/10 07:19:37;;;;;;;;;;;19.60;67.10;;;;;;5042100;28;87092;-46
2022/06/10 07:22:04;;;;;;;;;;;19.60;67.10;;;;;;5042048;27;88762;-47
2022/06/10 07:24:30;;;;;;;;;;;19.70;67.20;;;;;;5041605;28;87961;-47
2022/06/10 07:26:55;;;;;;;;;;;19.70;67.10;;;;;;5042374;28;87172;-46
2022/06/10 07:29:21;;;;;;;;;;;19.60;67.10;;;;;;5042534;27;88916;-48
2022/06/10 07:31:46;;;;;;;;;;;19.70;67.10;;;;;;5044958;28;87115;-47
2022/06/10 07:34:12;;;;;;;;;;;19.70;67.20;;;;;;5042333;28;86970;-46
2022/06/10 07:36:38;;;;;;;;;;;19.70;67.20;;;;;;5041346;28;89360;-47
2022/06/10 07:39:04;;;;;;;;;;;19.70;67.20;;;;;;5042030;27;87200;-47
2022/06/10 07:44:14;;;;;;;;;;;19.70;67.20;;;;;;5045446;28;87273;-46
2022/06/10 07:46:40;;;;;;;;;;;19.60;67.40;;;;;;5045286;28;86926;-46
2022/06/10 07:49:05;;;;;;;;;;;19.70;67.20;;;;;;5045273;27;89056;-46
2022/06/10 07:51:31;;;;;;;;;;;19.70;67.60;;;;;;5044738;28;89499;-45
2022/06/10 07:53:56;;;;;;;;;;;19.70;67.50;;;;;;5048678;28;86536;-46
2022/06/10 07:56:22;;;;;;;;;;;19.60;67.40;;;;;;5044826;28;87967;-47
2022/06/10 07:58:49;;;;;;;;;;;19.60;67.40;;;;;;5044864;28;87115;-46
2022/06/10 08:01:15;;;;;;;;;;;19.60;67.30;;;;;;5044459;27;89259;-46
2022/06/10 08:03:41;;;;;;;;;;;19.60;67.20;;;;;;5045118;28;87702;-48
2022/06/10 08:06:06;;;;;;;;;;;19.60;67.30;;;;;;5044710;28;87091;-47
2022/06/10 08:08:32;;;;;;;;;;;19.70;67.60;;;;;;5044877;28;86847;-49
2022/06/10 08:10:58;;;;;;;;;;;19.60;67.40;;;;;;5044224;28;87908;-48
2022/06/10 08:13:24;;;;;;;;;;;19.60;67.40;;;;;;5045083;28;87418;-46
2022/06/10 08:15:49;;;;;;;;;;;19.60;67.40;;;;;;5047651;27;87316;-48
2022/06/10 08:18:17;;;;;;;;;;;19.60;67.70;;;;;;5045276;28;86378;-48
2022/06/10 08:23:28;;;;;;;;;;;19.60;67.50;;;;;;5041836;28;87254;-50
2022/06/10 08:25:55;;;;;;;;;;;19.60;67.80;;;;;;5044233;28;87976;-48
2022/06/10 08:28:21;;;;;;;;;;;19.60;67.60;;;;;;5044680;28;88304;-47
2022/06/10 08:30:46;;;;;;;;;;;19.60;67.50;;;;;;5044357;28;87472;-47
2022/06/10 08:33:12;;;;;;;;;;;19.60;67.50;;;;;;5044830;28;87090;-49
2022/06/10 08:35:37;;;;;;;;;;;19.60;67.60;;;;;;5044648;28;87401;-48
2022/06/10 08:38:05;;;;;;;;;;;19.60;67.50;;;;;;5047100;28;88109;-47
2022/06/10 08:41:03;;;;;;;;;;;19.60;67.70;;;;;;5044319;28;87327;-46
2022/06/10 08:43:35;;;;;;;;;;;19.60;67.60;;;;;;5020877;28;88870;-47
2022/06/10 08:46:13;;;;;;;;;;;19.60;67.60;;;;;;5044358;28;87000;-47
2022/06/10 08:48:50;;;;;;;;;;;19.60;67.70;;;;;;5044772;27;86925;-46
2022/06/10 08:51:22;;;;;;;;;;;19.60;67.60;;;;;;5042508;28;88903;-47
2022/06/10 08:53:57;;;;;;;;;;;19.50;67.80;;;;;;5044634;28;87021;-47
2022/06/10 08:56:22;;;;;;;;;;;19.60;67.80;;;;;;5044516;27;86918;-48
2022/06/10 08:58:54;;;;;;;;;;;19.60;67.70;;;;;;5043857;28;87833;-46
2022/06/10 09:01:22;;;;;;;;;;;19.60;67.60;;;;;;5047373;28;87262;-46
2022/06/10 09:03:51;;;;;;;;;;;19.60;67.60;;;;;;5043757;28;89599;-49
2022/06/10 09:06:20;;;;;;;;;;;19.50;67.90;;;;;;5044396;28;87217;-46
2022/06/10 09:08:48;;;;;;;;;;;19.50;68.10;;;;;;5044687;27;87420;-47
2022/06/10 09:11:30;;;;;;;;;;;19.60;68.10;;;;;;5043045;28;87998;-48
2022/06/10 09:14:14;;;;;;;;;;;19.60;68.20;;;;;;5044084;28;87146;-45
2022/06/10 09:16:40;;;;;;;;;;;19.60;68.20;;;;;;5043476;27;88884;-47
2022/06/10 09:19:08;;;;;;;;;;;19.60;68.20;;;;;;5043758;28;88022;-47
2022/06/10 09:21:41;;;;;;;;;;;19.60;68.30;;;;;;5046818;28;86966;-47
2022/06/10 09:24:10;;;;;;;;;;;19.70;68.20;;;;;;5043414;28;89823;-46
2022/06/10 09:26:39;;;;;;;;;;;19.70;68.10;;;;;;5043858;27;87570;-47
2022/06/10 09:29:05;;;;;;;;;;;19.70;68.20;;;;;;5043879;27;88740;-47
2022/06/10 09:31:38;;;;;;;;;;;19.70;68.00;;;;;;5043613;28;88319;-46
2022/06/10 09:34:06;;;;;;;;;;;19.80;68.10;;;;;;5044187;28;86205;-48
2022/06/10 09:36:38;;;;;;;;;;;19.80;67.90;;;;;;5044064;28;86921;-46
2022/06/10 09:42:04;;;;;;;;;;;19.80;68.30;;;;;;5043106;28;87909;-48
2022/06/10 09:44:40;;;;;;;;;;;19.80;68.10;;;;;;5045996;27;88250;-46
2022/06/10 09:47:14;;;;;;;;;;;19.80;68.20;;;;;;5043724;28;86814;-48
2022/06/10 09:49:52;;;;;;;;;;;19.80;68.30;;;;;;5043684;28;87536;-46
2022/06/10 09:52:20;;;;;;;;;;;19.90;68.20;;;;;;5043283;28;87893;-46
2022/06/10 09:55:04;;;;;;;;;;;19.90;68.40;;;;;;5043430;28;87045;-47
2022/06/10 09:57:52;;;;;;;;;;;19.80;68.80;;;;;;5043535;27;87350;-50
2022/06/10 10:00:20;;;;;;;;;;;19.90;68.60;;;;;;5037394;28;87220;-46
2022/06/10 10:02:54;;;;;;;;;;;19.90;68.50;;;;;;5043278;28;87174;-48
2022/06/10 10:05:55;;;;;;;;;;;19.90;68.70;;;;;;5043521;28;87399;-49
2022/06/10 10:08:23;;;;;;;;;;;19.90;68.80;;;;;;5002577;28;88879;-47
2022/06/10 10:10:52;;;;;;;;;;;19.90;69.00;;;;;;5034399;28;88378;-47
2022/06/10 10:13:36;;;;;;;;;;;19.90;69.10;;;;;;5042983;28;88022;-47
2022/06/10 10:16:10;;;;;;;;;;;19.90;69.00;;;;;;5042945;27;87128;-49
2022/06/10 10:18:54;;;;;;;;;;;19.90;69.40;;;;;;5041574;28;88785;-49
2022/06/10 10:21:32;;;;;;;;;;;19.90;69.30;;;;;;5042853;27;88160;-47
2022/06/10 10:23:58;;;;;;;;;;;19.90;69.40;;;;;;5042989;28;87014;-48
2022/06/10 10:26:30;;;;;;;;;;;19.90;69.40;;;;;;5043160;27;87390;-47
2022/06/10 10:28:58;;;;;;;;;;;19.90;69.50;;;;;;5042766;28;88042;-47
2022/06/10 10:31:26;;;;;;;;;;;19.90;69.30;;;;;;5045826;28;86942;-46
2022/06/10 10:33:51;;;;;;;;;;;19.90;69.60;;;;;;5041853;28;88953;-48
2022/06/10 10:36:17;;;;;;;;;;;19.90;69.30;;;;;;5042918;28;87129;-46
2022/06/10 10:38:44;;;;;;;;;;;19.90;69.20;;;;;;5042759;28;87488;-45
2022/06/10 10:41:28;;;;;;;;;;;19.90;69.30;;;;;;5042006;28;87930;-47
2022/06/10 10:43:57;;;;;;;;;;;19.90;69.30;;;;;;5042834;27;87252;-47
2022/06/10 10:46:22;;;;;;;;;;;19.90;69.30;;;;;;5042825;27;87018;-49
2022/06/10 10:48:48;;;;;;;;;;;19.90;69.60;;;;;;5042392;28;87840;-46
2022/06/10 10:51:14;;;;;;;;;;;19.90;69.50;;;;;;5043152;28;86353;-48
2022/06/10 10:53:41;;;;;;;;;;;19.90;69.80;;;;;;5045090;28;87165;-46
2022/06/10 10:56:08;;;;;;;;;;;19.90;69.60;;;;;;5042457;28;87082;-46
2022/06/10 10:58:36;;;;;;;;;;;19.90;69.60;;;;;;5041975;28;88407;-50
2022/06/10 11:01:04;;;;;;;;;;;19.90;69.80;;;;;;5041980;28;87998;-47
2022/06/10 11:03:32;;;;;;;;;;;19.90;70.10;;;;;;5042532;28;87154;-47
2022/06/10 11:05:59;;;;;;;;;;;19.90;69.90;;;;;;5042193;27;88897;-46
2022/06/10 11:08:35;;;;;;;;;;;20.00;69.90;;;;;;5041944;28;89674;-46
2022/06/10 11:11:03;;;;;;;;;;;19.90;69.70;;;;;;5041461;28;87091;-47
2022/06/10 11:13:35;;;;;;;;;;;20.00;69.80;;;;;;5042043;27;87488;-47
2022/06/10 11:16:30;;;;;;;;;;;20.00;69.90;;;;;;5047770;27;87421;-46
2022/06/10 11:19:14;;;;;;;;;;;20.00;70.00;;;;;;5045734;28;88353;-46
2022/06/10 11:21:58;;;;;;;;;;;20.00;69.80;;;;;;5045449;27;88167;-46
2022/06/10 11:24:26;;;;;;;;;;;20.00;70.10;;;;;;5045147;27;88149;-47
2022/06/10 11:26:53;;;;;;;;;;;20.00;70.10;;;;;;5045630;28;89949;-46
2022/06/10 11:29:19;;;;;;;;;;;20.00;70.10;;;;;;5045262;28;87936;-46
2022/06/10 11:31:50;;;;;;;;;;;20.00;70.10;;;;;;5045745;28;87120;-48
2022/06/10 11:34:27;;;;;;;;;;;19.90;70.00;;;;;;5045766;28;87402;-46
2022/06/10 11:36:54;;;;;;;;;;;20.00;70.10;;;;;;5048278;28;88131;-46
2022/06/10 11:39:21;;;;;;;;;;;20.00;70.30;;;;;;5045462;27;89238;-45
2022/06/10 11:42:08;;;;;;;;;;;20.00;70.30;;;;;;5045114;28;87216;-46
2022/06/10 11:44:43;;;;;;;;;;;20.00;70.10;;;;;;5045443;28;87074;-47
2022/06/10 11:47:29;;;;;;;;;;;19.90;70.10;;;;;;5045548;27;87481;-46
2022/06/10 11:49:58;;;;;;;;;;;20.00;69.90;;;;;;5044462;27;88954;-46
2022/06/10 11:52:26;;;;;;;;;;;20.00;70.00;;;;;;5045292;28;87110;-47
2022/06/10 11:54:56;;;;;;;;;;;20.00;69.70;;;;;;5045237;27;87446;-50
2022/06/10 12:00:09;;;;;;;;;;;20.00;69.90;;;;;;5048293;28;87051;-46
2022/06/10 12:02:54;;;;;;;;;;;20.00;69.90;;;;;;5044695;28;88347;-47
2022/06/10 12:05:26;;;;;;;;;;;20.00;69.80;;;;;;5044542;28;86990;-48
2022/06/10 12:08:06;;;;;;;;;;;20.10;70.00;;;;;;5045643;28;87576;-47
2022/06/10 12:10:40;;;;;;;;;;;20.00;69.90;;;;;;5044431;28;88187;-47
2022/06/10 12:13:09;;;;;;;;;;;20.10;70.00;;;;;;5044393;28;86963;-46
2022/06/10 12:15:37;;;;;;;;;;;20.10;70.00;;;;;;5044086;28;88970;-48
2022/06/10 12:18:05;;;;;;;;;;;20.00;70.10;;;;;;5044250;28;87800;-47
2022/06/10 12:20:30;;;;;;;;;;;20.00;70.30;;;;;;5044662;28;87135;-50
2022/06/10 12:22:57;;;;;;;;;;;20.00;70.30;;;;;;5047519;28;87315;-47
2022/06/10 12:25:28;;;;;;;;;;;20.00;70.30;;;;;;5044777;27;87110;-48
2022/06/10 12:28:14;;;;;;;;;;;20.10;70.30;;;;;;5043503;27;88794;-45
2022/06/10 12:30:49;;;;;;;;;;;20.00;70.30;;;;;;5021915;28;88110;-47
2022/06/10 12:33:25;;;;;;;;;;;20.00;70.40;;;;;;5045084;28;86055;-46
2022/06/10 12:35:52;;;;;;;;;;;20.00;70.20;;;;;;5044448;27;87087;-48
2022/06/10 12:38:23;;;;;;;;;;;20.00;70.20;;;;;;5043964;28;89917;-46
2022/06/10 12:40:49;;;;;;;;;;;20.00;70.10;;;;;;5043682;28;87941;-47
2022/06/10 12:43:23;;;;;;;;;;;20.00;70.40;;;;;;5044860;28;88180;-48
2022/06/10 12:45:58;;;;;;;;;;;20.00;70.60;;;;;;5047057;28;88413;-48
2022/06/10 12:48:26;;;;;;;;;;;20.00;70.40;;;;;;5044311;27;87842;-45
2022/06/10 12:51:06;;;;;;;;;;;20.00;70.20;;;;;;5043801;28;89562;-47
2022/06/10 12:53:31;;;;;;;;;;;20.00;70.50;;;;;;5044679;28;87124;-46
2022/06/10 12:55:59;;;;;;;;;;;20.00;70.70;;;;;;5044482;28;87406;-46
2022/06/10 12:58:39;;;;;;;;;;;20.00;71.30;;;;;;5044488;28;87663;-47
2022/06/10 13:01:12;;;;;;;;;;;19.90;70.70;;;;;;5043944;28;87238;-46
2022/06/10 13:03:39;;;;;;;;;;;20.00;70.70;;;;;;5044015;27;88836;-47
2022/06/10 13:06:24;;;;;;;;;;;19.90;70.90;;;;;;5042967;28;90849;-46
2022/06/10 13:08:58;;;;;;;;;;;19.90;70.40;;;;;;5047190;28;86890;-46
2022/06/10 13:11:31;;;;;;;;;;;20.00;70.60;;;;;;5043185;28;87891;-46
2022/06/10 13:14:09;;;;;;;;;;;20.00;70.70;;;;;;5043819;28;87089;-46
2022/06/10 13:16:40;;;;;;;;;;;20.00;70.50;;;;;;5043767;27;89144;-46
2022/06/10 13:19:23;;;;;;;;;;;20.00;70.50;;;;;;5043271;28;89606;-48
2022/06/10 13:21:49;;;;;;;;;;;20.00;70.60;;;;;;5044019;28;87009;-46
2022/06/10 13:24:15;;;;;;;;;;;20.00;70.40;;;;;;5044371;27;87392;-47
2022/06/10 13:26:41;;;;;;;;;;;20.00;70.70;;;;;;5043278;28;89371;-46
2022/06/10 13:29:17;;;;;;;;;;;19.90;70.50;;;;;;5043745;28;86975;-46
2022/06/10 13:31:54;;;;;;;;;;;19.90;70.70;;;;;;5045306;27;89998;-47
2022/06/10 13:34:21;;;;;;;;;;;20.00;70.70;;;;;;5043561;28;87133;-46
2022/06/10 13:36:49;;;;;;;;;;;19.90;70.30;;;;;;5043299;27;87046;-46
2022/06/10 13:39:34;;;;;;;;;;;19.90;71.00;;;;;;5042308;28;89358;-46
2022/06/10 13:42:01;;;;;;;;;;;19.90;70.40;;;;;;5043648;28;89243;-47
2022/06/10 13:44:43;;;;;;;;;;;20.00;70.50;;;;;;5043139;27;88859;-47
2022/06/10 13:47:23;;;;;;;;;;;20.00;70.80;;;;;;5042676;28;88182;-45
2022/06/10 13:50:11;;;;;;;;;;;20.00;70.50;;;;;;5043690;28;86351;-45
2022/06/10 13:52:47;;;;;;;;;;;20.10;70.50;;;;;;5045800;27;88143;-48
2022/06/10 13:55:28;;;;;;;;;;;20.00;70.40;;;;;;5043184;28;86968;-47
2022/06/10 13:57:59;;;;;;;;;;;20.00;70.30;;;;;;5042395;28;87990;-46
2022/06/10 14:00:26;;;;;;;;;;;20.00;70.40;;;;;;5042887;28;87921;-46
2022/06/10 14:02:53;;;;;;;;;;;20.00;70.30;;;;;;5043060;28;87064;-47
2022/06/10 14:05:20;;;;;;;;;;;20.00;70.30;;;;;;5042974;27;89189;-46
2022/06/10 14:07:47;;;;;;;;;;;20.00;70.10;;;;;;5042907;28;88276;-46
2022/06/10 14:10:27;;;;;;;;;;;20.00;70.10;;;;;;5042957;28;87144;-46
2022/06/10 14:13:03;;;;;;;;;;;20.00;70.30;;;;;;5043025;28;87002;-46
2022/06/10 14:15:31;;;;;;;;;;;20.00;70.40;;;;;;5046023;28;87746;-46
2022/06/10 14:17:58;;;;;;;;;;;20.00;70.10;;;;;;5043481;27;86906;-49
2022/06/10 14:20:29;;;;;;;;;;;20.00;70.10;;;;;;5042780;28;87766;-46
2022/06/10 14:23:02;;;;;;;;;;;20.00;70.20;;;;;;5042564;28;88102;-45
2022/06/10 14:25:28;;;;;;;;;;;20.00;70.40;;;;;;5043000;27;88331;-49
2022/06/10 14:27:56;;;;;;;;;;;19.90;70.30;;;;;;5042730;28;88097;-45
2022/06/10 14:30:24;;;;;;;;;;;20.00;70.30;;;;;;5043027;28;87148;-46
2022/06/10 14:32:52;;;;;;;;;;;20.00;70.60;;;;;;5042462;27;87493;-46
2022/06/10 14:35:30;;;;;;;;;;;20.00;70.80;;;;;;5041900;28;88525;-47
2022/06/10 14:38:05;;;;;;;;;;;20.00;70.70;;;;;;5045490;28;87259;-45
2022/06/10 14:40:30;;;;;;;;;;;20.00;70.90;;;;;;5042413;28;86463;-48
2022/06/10 14:43:25;;;;;;;;;;;20.10;70.80;;;;;;5042329;28;87133;-45
2022/06/10 14:46:21;;;;;;;;;;;20.10;70.80;;;;;;5033200;27;87103;-49
2022/06/10 14:48:48;;;;;;;;;;;20.20;70.70;;;;;;5031862;28;90271;-47
2022/06/10 14:51:29;;;;;;;;;;;20.20;70.40;;;;;;5041771;28;87192;-47